sensor_id;sensor_type;location;lat;lon;timestamp;P1;durP1;ratioP1;P2;durP2;ratioP2
36585;SDS011;22591;48.314;11.562;2022-10-30T00:01:23;4.90;;;4.28;;
36585;SDS011;22591;48.314;11.562;2022-10-30T00:03:49;10.38;;;5.28;;
36585;SDS011;22591;48.314;11.562;2022-10-30T00:06:14;11.02;;;5.10;;
36585;SDS011;22591;48.314;11.562;2022-10-30T00:08:40;16.05;;;6.13;;
36585;SDS011;22591;48.314;11.562;2022-10-30T00:11:11;10.38;;;5.95;;
36585;SDS011;22591;48.314;11.562;2022-10-30T00:13:37;12.60;;;5.82;;
36585;SDS011;22591;48.314;11.562;2022-10-30T00:16:04;23.05;;;9.60;;
36585;SDS011;22591;48.314;11.562;2022-10-30T00:18:33;16.65;;;8.82;;
36585;SDS011;22591;48.314;11.562;2022-10-30T00:21:04;11.43;;;6.95;;
36585;SDS011;22591;48.314;11.562;2022-10-30T00:23:31;12.40;;;6.32;;
36585;SDS011;22591;48.314;11.562;2022-10-30T00:26:00;13.82;;;6.13;;
36585;SDS011;22591;48.314;11.562;2022-10-30T00:28:27;12.35;;;6.05;;
36585;SDS011;22591;48.314;11.562;2022-10-30T00:30:53;7.97;;;5.30;;
36585;SDS011;22591;48.314;11.562;2022-10-30T00:33:18;11.95;;;5.80;;
36585;SDS011;22591;48.314;11.562;2022-10-30T00:35:47;13.55;;;6.43;;
36585;SDS011;22591;48.314;11.562;2022-10-30T00:38:13;12.50;;;6.63;;
36585;SDS011;22591;48.314;11.562;2022-10-30T00:40:38;10.10;;;5.82;;
36585;SDS011;22591;48.314;11.562;2022-10-30T00:43:04;9.82;;;6.75;;
36585;SDS011;22591;48.314;11.562;2022-10-30T00:45:49;12.80;;;7.05;;
36585;SDS011;22591;48.314;11.562;2022-10-30T00:48:15;10.23;;;6.68;;
36585;SDS011;22591;48.314;11.562;2022-10-30T00:50:49;11.02;;;5.60;;
36585;SDS011;22591;48.314;11.562;2022-10-30T00:53:15;10.13;;;5.53;;
36585;SDS011;22591;48.314;11.562;2022-10-30T00:55:45;5.68;;;5.18;;
36585;SDS011;22591;48.314;11.562;2022-10-30T00:58:18;11.00;;;7.40;;
36585;SDS011;22591;48.314;11.562;2022-10-30T01:00:47;8.98;;;6.40;;
36585;SDS011;22591;48.314;11.562;2022-10-30T01:03:18;16.05;;;6.60;;
36585;SDS011;22591;48.314;11.562;2022-10-30T01:05:46;16.10;;;8.45;;
36585;SDS011;22591;48.314;11.562;2022-10-30T01:08:15;14.55;;;7.65;;
36585;SDS011;22591;48.314;11.562;2022-10-30T01:10:40;15.10;;;7.15;;
36585;SDS011;22591;48.314;11.562;2022-10-30T01:13:06;17.23;;;8.38;;
36585;SDS011;22591;48.314;11.562;2022-10-30T01:15:33;16.25;;;8.75;;
36585;SDS011;22591;48.314;11.562;2022-10-30T01:20:47;12.38;;;7.63;;
36585;SDS011;22591;48.314;11.562;2022-10-30T01:23:36;19.85;;;7.47;;
36585;SDS011;22591;48.314;11.562;2022-10-30T01:26:25;13.27;;;7.47;;
36585;SDS011;22591;48.314;11.562;2022-10-30T01:37:19;21.13;;;10.45;;
36585;SDS011;22591;48.314;11.562;2022-10-30T01:39:52;15.00;;;10.48;;
36585;SDS011;22591;48.314;11.562;2022-10-30T01:50:37;18.73;;;10.00;;
36585;SDS011;22591;48.314;11.562;2022-10-30T01:53:24;12.10;;;8.95;;
36585;SDS011;22591;48.314;11.562;2022-10-30T01:58:42;11.48;;;8.05;;
36585;SDS011;22591;48.314;11.562;2022-10-30T02:01:15;18.10;;;10.10;;
36585;SDS011;22591;48.314;11.562;2022-10-30T02:03:42;10.25;;;9.13;;
36585;SDS011;22591;48.314;11.562;2022-10-30T02:06:09;19.33;;;9.27;;
36585;SDS011;22591;48.314;11.562;2022-10-30T02:08:35;13.73;;;9.63;;
36585;SDS011;22591;48.314;11.562;2022-10-30T02:11:01;12.05;;;8.88;;
36585;SDS011;22591;48.314;11.562;2022-10-30T02:13:26;16.13;;;9.20;;
36585;SDS011;22591;48.314;11.562;2022-10-30T02:15:52;12.40;;;8.90;;
36585;SDS011;22591;48.314;11.562;2022-10-30T02:18:18;20.20;;;10.43;;
36585;SDS011;22591;48.314;11.562;2022-10-30T02:20:44;18.33;;;11.13;;
36585;SDS011;22591;48.314;11.562;2022-10-30T02:23:09;9.65;;;8.48;;
36585;SDS011;22591;48.314;11.562;2022-10-30T02:25:40;9.00;;;8.10;;
36585;SDS011;22591;48.314;11.562;2022-10-30T02:28:06;10.40;;;8.15;;
36585;SDS011;22591;48.314;11.562;2022-10-30T02:30:31;13.50;;;9.35;;
36585;SDS011;22591;48.314;11.562;2022-10-30T02:32:57;20.17;;;11.77;;
36585;SDS011;22591;48.314;11.562;2022-10-30T02:35:22;13.68;;;11.30;;
36585;SDS011;22591;48.314;11.562;2022-10-30T02:37:48;20.92;;;11.75;;
36585;SDS011;22591;48.314;11.562;2022-10-30T02:40:14;22.23;;;12.02;;
36585;SDS011;22591;48.314;11.562;2022-10-30T02:42:39;17.20;;;11.15;;
36585;SDS011;22591;48.314;11.562;2022-10-30T02:45:05;19.15;;;11.45;;
36585;SDS011;22591;48.314;11.562;2022-10-30T02:47:31;20.33;;;12.82;;
36585;SDS011;22591;48.314;11.562;2022-10-30T02:49:57;18.90;;;11.50;;
36585;SDS011;22591;48.314;11.562;2022-10-30T02:52:23;23.17;;;12.70;;
36585;SDS011;22591;48.314;11.562;2022-10-30T02:54:48;29.52;;;12.85;;
36585;SDS011;22591;48.314;11.562;2022-10-30T02:57:14;24.63;;;12.68;;
36585;SDS011;22591;48.314;11.562;2022-10-30T02:59:39;12.93;;;8.90;;
36585;SDS011;22591;48.314;11.562;2022-10-30T03:02:05;9.77;;;8.75;;
36585;SDS011;22591;48.314;11.562;2022-10-30T03:04:31;20.63;;;11.73;;
36585;SDS011;22591;48.314;11.562;2022-10-30T03:06:56;14.32;;;9.15;;
36585;SDS011;22591;48.314;11.562;2022-10-30T03:09:22;13.75;;;10.00;;
36585;SDS011;22591;48.314;11.562;2022-10-30T03:11:47;17.15;;;10.93;;
36585;SDS011;22591;48.314;11.562;2022-10-30T03:14:13;20.02;;;12.80;;
36585;SDS011;22591;48.314;11.562;2022-10-30T03:16:38;22.48;;;14.02;;
36585;SDS011;22591;48.314;11.562;2022-10-30T03:19:04;18.83;;;13.45;;
36585;SDS011;22591;48.314;11.562;2022-10-30T03:21:29;18.27;;;14.13;;
36585;SDS011;22591;48.314;11.562;2022-10-30T03:23:55;22.80;;;14.48;;
36585;SDS011;22591;48.314;11.562;2022-10-30T03:26:21;24.58;;;14.30;;
36585;SDS011;22591;48.314;11.562;2022-10-30T03:28:47;21.95;;;14.95;;
36585;SDS011;22591;48.314;11.562;2022-10-30T03:31:13;23.65;;;17.80;;
36585;SDS011;22591;48.314;11.562;2022-10-30T03:33:40;30.10;;;18.83;;
36585;SDS011;22591;48.314;11.562;2022-10-30T03:36:07;27.08;;;17.38;;
36585;SDS011;22591;48.314;11.562;2022-10-30T03:38:33;23.48;;;15.70;;
36585;SDS011;22591;48.314;11.562;2022-10-30T03:40:59;29.17;;;16.00;;
36585;SDS011;22591;48.314;11.562;2022-10-30T03:43:25;27.70;;;17.17;;
36585;SDS011;22591;48.314;11.562;2022-10-30T03:45:51;37.22;;;16.05;;
36585;SDS011;22591;48.314;11.562;2022-10-30T03:48:20;39.65;;;14.18;;
36585;SDS011;22591;48.314;11.562;2022-10-30T03:50:48;21.48;;;11.93;;
36585;SDS011;22591;48.314;11.562;2022-10-30T03:53:14;37.35;;;15.00;;
36585;SDS011;22591;48.314;11.562;2022-10-30T03:55:40;43.45;;;17.13;;
36585;SDS011;22591;48.314;11.562;2022-10-30T03:58:05;40.13;;;14.88;;
36585;SDS011;22591;48.314;11.562;2022-10-30T04:00:31;79.88;;;22.90;;
36585;SDS011;22591;48.314;11.562;2022-10-30T04:02:58;55.08;;;20.83;;
36585;SDS011;22591;48.314;11.562;2022-10-30T04:05:24;21.30;;;14.10;;
36585;SDS011;22591;48.314;11.562;2022-10-30T04:07:57;26.25;;;15.88;;
36585;SDS011;22591;48.314;11.562;2022-10-30T04:10:27;20.92;;;14.60;;
36585;SDS011;22591;48.314;11.562;2022-10-30T04:12:58;33.67;;;16.33;;
36585;SDS011;22591;48.314;11.562;2022-10-30T04:15:25;18.73;;;12.75;;
36585;SDS011;22591;48.314;11.562;2022-10-30T04:17:50;32.60;;;20.58;;
36585;SDS011;22591;48.314;11.562;2022-10-30T04:20:17;101.30;;;24.17;;
36585;SDS011;22591;48.314;11.562;2022-10-30T04:22:43;47.05;;;17.58;;
36585;SDS011;22591;48.314;11.562;2022-10-30T04:25:09;45.53;;;20.20;;
36585;SDS011;22591;48.314;11.562;2022-10-30T04:27:41;58.00;;;16.67;;
36585;SDS011;22591;48.314;11.562;2022-10-30T04:30:09;47.10;;;21.73;;
36585;SDS011;22591;48.314;11.562;2022-10-30T04:32:36;31.00;;;19.77;;
36585;SDS011;22591;48.314;11.562;2022-10-30T04:35:23;25.98;;;16.67;;
36585;SDS011;22591;48.314;11.562;2022-10-30T04:37:53;24.63;;;15.18;;
36585;SDS011;22591;48.314;11.562;2022-10-30T04:40:20;88.80;;;18.10;;
36585;SDS011;22591;48.314;11.562;2022-10-30T04:42:47;22.75;;;15.23;;
36585;SDS011;22591;48.314;11.562;2022-10-30T04:45:12;13.57;;;12.18;;
36585;SDS011;22591;48.314;11.562;2022-10-30T04:47:38;41.38;;;21.65;;
36585;SDS011;22591;48.314;11.562;2022-10-30T04:50:04;97.82;;;26.30;;
36585;SDS011;22591;48.314;11.562;2022-10-30T04:52:30;75.57;;;24.95;;
36585;SDS011;22591;48.314;11.562;2022-10-30T04:54:56;36.47;;;14.88;;
36585;SDS011;22591;48.314;11.562;2022-10-30T04:57:21;11.68;;;10.55;;
36585;SDS011;22591;48.314;11.562;2022-10-30T04:59:47;15.63;;;12.02;;
36585;SDS011;22591;48.314;11.562;2022-10-30T05:02:12;8.65;;;7.95;;
36585;SDS011;22591;48.314;11.562;2022-10-30T05:04:38;12.90;;;11.60;;
36585;SDS011;22591;48.314;11.562;2022-10-30T05:07:03;11.70;;;10.55;;
36585;SDS011;22591;48.314;11.562;2022-10-30T05:09:29;15.52;;;14.02;;
36585;SDS011;22591;48.314;11.562;2022-10-30T05:11:54;18.50;;;16.27;;
36585;SDS011;22591;48.314;11.562;2022-10-30T05:14:20;25.38;;;17.55;;
36585;SDS011;22591;48.314;11.562;2022-10-30T05:16:45;17.88;;;16.23;;
36585;SDS011;22591;48.314;11.562;2022-10-30T05:19:11;20.20;;;17.92;;
36585;SDS011;22591;48.314;11.562;2022-10-30T05:21:36;21.58;;;18.65;;
36585;SDS011;22591;48.314;11.562;2022-10-30T05:24:02;28.08;;;19.50;;
36585;SDS011;22591;48.314;11.562;2022-10-30T05:26:28;14.68;;;13.35;;
36585;SDS011;22591;48.314;11.562;2022-10-30T05:28:53;9.90;;;9.02;;
36585;SDS011;22591;48.314;11.562;2022-10-30T05:31:19;8.93;;;8.32;;
36585;SDS011;22591;48.314;11.562;2022-10-30T05:33:44;13.57;;;12.02;;
36585;SDS011;22591;48.314;11.562;2022-10-30T05:36:10;10.18;;;9.52;;
36585;SDS011;22591;48.314;11.562;2022-10-30T05:38:35;18.60;;;15.90;;
36585;SDS011;22591;48.314;11.562;2022-10-30T05:41:01;20.75;;;16.65;;
36585;SDS011;22591;48.314;11.562;2022-10-30T05:43:26;23.25;;;16.98;;
36585;SDS011;22591;48.314;11.562;2022-10-30T05:45:52;19.85;;;15.73;;
36585;SDS011;22591;48.314;11.562;2022-10-30T05:48:17;21.83;;;15.70;;
36585;SDS011;22591;48.314;11.562;2022-10-30T05:50:43;22.42;;;16.45;;
36585;SDS011;22591;48.314;11.562;2022-10-30T05:53:09;21.85;;;16.25;;
36585;SDS011;22591;48.314;11.562;2022-10-30T05:55:35;21.50;;;15.00;;
36585;SDS011;22591;48.314;11.562;2022-10-30T05:58:03;24.20;;;15.32;;
36585;SDS011;22591;48.314;11.562;2022-10-30T06:00:31;26.48;;;17.50;;
36585;SDS011;22591;48.314;11.562;2022-10-30T06:03:02;26.30;;;16.98;;
36585;SDS011;22591;48.314;11.562;2022-10-30T06:05:30;31.10;;;17.45;;
36585;SDS011;22591;48.314;11.562;2022-10-30T06:07:57;15.70;;;11.40;;
36585;SDS011;22591;48.314;11.562;2022-10-30T06:10:23;17.88;;;13.73;;
36585;SDS011;22591;48.314;11.562;2022-10-30T06:12:52;17.67;;;12.00;;
36585;SDS011;22591;48.314;11.562;2022-10-30T06:15:25;15.77;;;11.77;;
36585;SDS011;22591;48.314;11.562;2022-10-30T06:17:51;11.75;;;9.85;;
36585;SDS011;22591;48.314;11.562;2022-10-30T06:20:17;12.48;;;9.50;;
36585;SDS011;22591;48.314;11.562;2022-10-30T06:25:23;18.05;;;12.20;;
36585;SDS011;22591;48.314;11.562;2022-10-30T06:27:49;20.45;;;11.70;;
36585;SDS011;22591;48.314;11.562;2022-10-30T06:30:15;16.92;;;13.10;;
36585;SDS011;22591;48.314;11.562;2022-10-30T06:32:41;17.58;;;12.70;;
36585;SDS011;22591;48.314;11.562;2022-10-30T06:35:06;22.92;;;16.70;;
36585;SDS011;22591;48.314;11.562;2022-10-30T06:37:32;26.95;;;16.63;;
36585;SDS011;22591;48.314;11.562;2022-10-30T06:39:58;23.08;;;11.60;;
36585;SDS011;22591;48.314;11.562;2022-10-30T06:42:24;16.90;;;12.02;;
36585;SDS011;22591;48.314;11.562;2022-10-30T06:44:49;15.88;;;11.82;;
36585;SDS011;22591;48.314;11.562;2022-10-30T06:47:15;19.23;;;15.63;;
36585;SDS011;22591;48.314;11.562;2022-10-30T06:49:40;13.00;;;11.20;;
36585;SDS011;22591;48.314;11.562;2022-10-30T06:52:06;74.43;;;38.10;;
36585;SDS011;22591;48.314;11.562;2022-10-30T06:54:32;39.72;;;23.50;;
36585;SDS011;22591;48.314;11.562;2022-10-30T06:56:57;119.22;;;61.10;;
36585;SDS011;22591;48.314;11.562;2022-10-30T06:59:23;59.75;;;33.30;;
36585;SDS011;22591;48.314;11.562;2022-10-30T07:01:48;39.65;;;23.45;;
36585;SDS011;22591;48.314;11.562;2022-10-30T07:04:14;26.65;;;16.50;;
36585;SDS011;22591;48.314;11.562;2022-10-30T07:06:40;20.05;;;12.98;;
36585;SDS011;22591;48.314;11.562;2022-10-30T07:09:05;15.43;;;11.82;;
36585;SDS011;22591;48.314;11.562;2022-10-30T07:11:31;15.80;;;10.63;;
36585;SDS011;22591;48.314;11.562;2022-10-30T07:13:56;19.13;;;10.38;;
36585;SDS011;22591;48.314;11.562;2022-10-30T07:16:22;15.52;;;11.82;;
36585;SDS011;22591;48.314;11.562;2022-10-30T07:18:47;11.63;;;9.02;;
36585;SDS011;22591;48.314;11.562;2022-10-30T07:21:13;13.70;;;9.63;;
36585;SDS011;22591;48.314;11.562;2022-10-30T07:23:38;13.18;;;9.07;;
36585;SDS011;22591;48.314;11.562;2022-10-30T07:26:04;10.98;;;8.30;;
36585;SDS011;22591;48.314;11.562;2022-10-30T07:28:31;11.60;;;8.10;;
36585;SDS011;22591;48.314;11.562;2022-10-30T07:30:57;13.15;;;7.38;;
36585;SDS011;22591;48.314;11.562;2022-10-30T07:33:23;12.18;;;7.97;;
36585;SDS011;22591;48.314;11.562;2022-10-30T07:35:49;13.70;;;9.10;;
36585;SDS011;22591;48.314;11.562;2022-10-30T07:38:14;10.82;;;7.55;;
36585;SDS011;22591;48.314;11.562;2022-10-30T07:40:41;11.40;;;6.78;;
36585;SDS011;22591;48.314;11.562;2022-10-30T07:43:08;12.18;;;6.93;;
36585;SDS011;22591;48.314;11.562;2022-10-30T07:45:37;10.77;;;6.72;;
36585;SDS011;22591;48.314;11.562;2022-10-30T07:48:03;15.05;;;6.82;;
36585;SDS011;22591;48.314;11.562;2022-10-30T07:50:29;14.07;;;6.50;;
36585;SDS011;22591;48.314;11.562;2022-10-30T07:52:55;10.43;;;6.55;;
36585;SDS011;22591;48.314;11.562;2022-10-30T07:55:20;12.98;;;6.40;;
36585;SDS011;22591;48.314;11.562;2022-10-30T07:57:46;17.75;;;7.10;;
36585;SDS011;22591;48.314;11.562;2022-10-30T08:00:12;12.45;;;5.95;;
36585;SDS011;22591;48.314;11.562;2022-10-30T08:02:39;14.57;;;6.68;;
36585;SDS011;22591;48.314;11.562;2022-10-30T08:05:05;11.55;;;6.28;;
36585;SDS011;22591;48.314;11.562;2022-10-30T08:07:31;10.73;;;6.00;;
36585;SDS011;22591;48.314;11.562;2022-10-30T08:09:58;13.50;;;6.50;;
36585;SDS011;22591;48.314;11.562;2022-10-30T08:12:24;16.55;;;6.38;;
36585;SDS011;22591;48.314;11.562;2022-10-30T08:14:50;11.90;;;5.72;;
36585;SDS011;22591;48.314;11.562;2022-10-30T08:17:17;12.45;;;6.35;;
36585;SDS011;22591;48.314;11.562;2022-10-30T08:19:43;11.18;;;5.10;;
36585;SDS011;22591;48.314;11.562;2022-10-30T08:22:09;5.80;;;4.60;;
36585;SDS011;22591;48.314;11.562;2022-10-30T08:24:35;5.68;;;5.10;;
36585;SDS011;22591;48.314;11.562;2022-10-30T08:27:01;9.57;;;5.68;;
36585;SDS011;22591;48.314;11.562;2022-10-30T08:29:28;8.07;;;5.82;;
36585;SDS011;22591;48.314;11.562;2022-10-30T08:31:54;9.88;;;5.35;;
36585;SDS011;22591;48.314;11.562;2022-10-30T08:34:19;9.48;;;5.47;;
36585;SDS011;22591;48.314;11.562;2022-10-30T08:36:49;6.60;;;5.72;;
36585;SDS011;22591;48.314;11.562;2022-10-30T08:39:15;9.65;;;6.90;;
36585;SDS011;22591;48.314;11.562;2022-10-30T08:41:42;11.57;;;5.85;;
36585;SDS011;22591;48.314;11.562;2022-10-30T08:44:07;10.23;;;6.22;;
36585;SDS011;22591;48.314;11.562;2022-10-30T08:46:33;15.15;;;6.10;;
36585;SDS011;22591;48.314;11.562;2022-10-30T08:48:58;11.27;;;5.80;;
36585;SDS011;22591;48.314;11.562;2022-10-30T08:51:25;12.32;;;6.22;;
36585;SDS011;22591;48.314;11.562;2022-10-30T08:53:50;20.02;;;5.00;;
36585;SDS011;22591;48.314;11.562;2022-10-30T08:56:16;8.43;;;5.60;;
36585;SDS011;22591;48.314;11.562;2022-10-30T08:58:42;10.93;;;5.53;;
36585;SDS011;22591;48.314;11.562;2022-10-30T09:01:07;10.95;;;5.57;;
36585;SDS011;22591;48.314;11.562;2022-10-30T09:03:33;13.90;;;5.13;;
36585;SDS011;22591;48.314;11.562;2022-10-30T09:05:58;10.63;;;4.90;;
36585;SDS011;22591;48.314;11.562;2022-10-30T09:08:25;16.70;;;5.57;;
36585;SDS011;22591;48.314;11.562;2022-10-30T09:10:55;9.88;;;5.18;;
36585;SDS011;22591;48.314;11.562;2022-10-30T09:13:22;9.40;;;4.72;;
36585;SDS011;22591;48.314;11.562;2022-10-30T09:15:48;14.18;;;5.00;;
36585;SDS011;22591;48.314;11.562;2022-10-30T09:18:13;15.80;;;4.70;;
36585;SDS011;22591;48.314;11.562;2022-10-30T09:20:39;14.77;;;6.07;;
36585;SDS011;22591;48.314;11.562;2022-10-30T09:23:04;9.30;;;5.25;;
36585;SDS011;22591;48.314;11.562;2022-10-30T09:25:30;8.65;;;5.50;;
36585;SDS011;22591;48.314;11.562;2022-10-30T09:27:55;14.35;;;5.50;;
36585;SDS011;22591;48.314;11.562;2022-10-30T09:30:21;12.32;;;6.43;;
36585;SDS011;22591;48.314;11.562;2022-10-30T09:32:56;12.55;;;6.05;;
36585;SDS011;22591;48.314;11.562;2022-10-30T09:35:23;13.52;;;7.63;;
36585;SDS011;22591;48.314;11.562;2022-10-30T09:37:49;16.05;;;5.93;;
36585;SDS011;22591;48.314;11.562;2022-10-30T09:40:22;15.20;;;5.15;;
36585;SDS011;22591;48.314;11.562;2022-10-30T09:42:53;11.05;;;4.55;;
36585;SDS011;22591;48.314;11.562;2022-10-30T09:53:17;11.85;;;5.43;;
36585;SDS011;22591;48.314;11.562;2022-10-30T09:56:12;12.88;;;6.15;;
36585;SDS011;22591;48.314;11.562;2022-10-30T10:01:26;11.07;;;3.95;;
36585;SDS011;22591;48.314;11.562;2022-10-30T10:04:16;10.70;;;4.40;;
36585;SDS011;22591;48.314;11.562;2022-10-30T10:06:47;10.57;;;4.63;;
36585;SDS011;22591;48.314;11.562;2022-10-30T10:09:19;12.50;;;6.13;;
36585;SDS011;22591;48.314;11.562;2022-10-30T10:11:51;7.80;;;5.20;;
36585;SDS011;22591;48.314;11.562;2022-10-30T10:14:28;10.82;;;4.45;;
36585;SDS011;22591;48.314;11.562;2022-10-30T10:16:58;13.02;;;4.28;;
36585;SDS011;22591;48.314;11.562;2022-10-30T10:22:26;8.30;;;3.80;;
36585;SDS011;22591;48.314;11.562;2022-10-30T10:24:56;9.57;;;4.35;;
36585;SDS011;22591;48.314;11.562;2022-10-30T10:46:48;11.25;;;4.55;;
36585;SDS011;22591;48.314;11.562;2022-10-30T10:49:51;13.80;;;4.72;;
36585;SDS011;22591;48.314;11.562;2022-10-30T10:52:24;11.05;;;4.32;;
36585;SDS011;22591;48.314;11.562;2022-10-30T10:54:57;7.78;;;3.90;;
36585;SDS011;22591;48.314;11.562;2022-10-30T10:57:36;5.93;;;4.15;;
36585;SDS011;22591;48.314;11.562;2022-10-30T11:00:09;13.40;;;4.32;;
36585;SDS011;22591;48.314;11.562;2022-10-30T11:02:40;11.88;;;4.45;;
36585;SDS011;22591;48.314;11.562;2022-10-30T11:05:19;8.20;;;3.87;;
36585;SDS011;22591;48.314;11.562;2022-10-30T11:07:49;9.30;;;4.00;;
36585;SDS011;22591;48.314;11.562;2022-10-30T11:10:16;7.88;;;4.15;;
36585;SDS011;22591;48.314;11.562;2022-10-30T11:12:43;12.23;;;4.65;;
36585;SDS011;22591;48.314;11.562;2022-10-30T11:15:17;8.93;;;4.13;;
36585;SDS011;22591;48.314;11.562;2022-10-30T11:17:57;7.97;;;4.13;;
36585;SDS011;22591;48.314;11.562;2022-10-30T11:23:32;11.90;;;5.50;;
36585;SDS011;22591;48.314;11.562;2022-10-30T11:25:57;10.85;;;4.30;;
36585;SDS011;22591;48.314;11.562;2022-10-30T11:31:16;10.35;;;4.95;;
36585;SDS011;22591;48.314;11.562;2022-10-30T11:33:46;14.05;;;4.85;;
36585;SDS011;22591;48.314;11.562;2022-10-30T11:36:17;10.00;;;4.43;;
36585;SDS011;22591;48.314;11.562;2022-10-30T11:38:46;12.02;;;5.25;;
36585;SDS011;22591;48.314;11.562;2022-10-30T11:41:12;9.15;;;4.47;;
36585;SDS011;22591;48.314;11.562;2022-10-30T11:43:39;9.00;;;4.50;;
36585;SDS011;22591;48.314;11.562;2022-10-30T11:46:08;7.82;;;4.07;;
36585;SDS011;22591;48.314;11.562;2022-10-30T11:48:41;9.90;;;4.68;;
36585;SDS011;22591;48.314;11.562;2022-10-30T11:51:08;7.40;;;4.50;;
36585;SDS011;22591;48.314;11.562;2022-10-30T11:53:37;6.40;;;4.03;;
36585;SDS011;22591;48.314;11.562;2022-10-30T11:56:12;8.57;;;4.20;;
36585;SDS011;22591;48.314;11.562;2022-10-30T11:58:45;9.27;;;4.47;;
36585;SDS011;22591;48.314;11.562;2022-10-30T12:04:13;9.98;;;4.15;;
36585;SDS011;22591;48.314;11.562;2022-10-30T12:06:46;12.43;;;4.63;;
36585;SDS011;22591;48.314;11.562;2022-10-30T12:09:13;7.93;;;4.25;;
36585;SDS011;22591;48.314;11.562;2022-10-30T12:11:43;8.70;;;4.53;;
36585;SDS011;22591;48.314;11.562;2022-10-30T12:14:16;12.68;;;4.25;;
36585;SDS011;22591;48.314;11.562;2022-10-30T12:16:49;11.82;;;4.25;;
36585;SDS011;22591;48.314;11.562;2022-10-30T12:19:16;7.65;;;3.90;;
36585;SDS011;22591;48.314;11.562;2022-10-30T12:21:47;6.28;;;3.38;;
36585;SDS011;22591;48.314;11.562;2022-10-30T12:24:35;10.35;;;4.15;;
36585;SDS011;22591;48.314;11.562;2022-10-30T12:27:04;10.48;;;4.05;;
36585;SDS011;22591;48.314;11.562;2022-10-30T12:29:41;9.00;;;4.28;;
36585;SDS011;22591;48.314;11.562;2022-10-30T12:32:14;12.65;;;4.55;;
36585;SDS011;22591;48.314;11.562;2022-10-30T12:37:14;6.65;;;3.17;;
36585;SDS011;22591;48.314;11.562;2022-10-30T12:39:50;8.00;;;3.55;;
36585;SDS011;22591;48.314;11.562;2022-10-30T12:42:24;14.73;;;4.20;;
36585;SDS011;22591;48.314;11.562;2022-10-30T12:47:50;8.88;;;3.97;;
36585;SDS011;22591;48.314;11.562;2022-10-30T12:53:07;6.50;;;3.38;;
36585;SDS011;22591;48.314;11.562;2022-10-30T12:55:50;7.85;;;3.80;;
36585;SDS011;22591;48.314;11.562;2022-10-30T12:58:30;7.10;;;3.70;;
36585;SDS011;22591;48.314;11.562;2022-10-30T13:01:00;10.88;;;4.15;;
36585;SDS011;22591;48.314;11.562;2022-10-30T13:03:47;8.13;;;3.72;;
36585;SDS011;22591;48.314;11.562;2022-10-30T13:06:26;10.82;;;3.58;;
36585;SDS011;22591;48.314;11.562;2022-10-30T13:09:02;8.52;;;4.32;;
36585;SDS011;22591;48.314;11.562;2022-10-30T13:11:51;9.40;;;3.60;;
36585;SDS011;22591;48.314;11.562;2022-10-30T13:14:27;6.55;;;3.50;;
36585;SDS011;22591;48.314;11.562;2022-10-30T13:17:15;10.90;;;4.43;;
36585;SDS011;22591;48.314;11.562;2022-10-30T13:19:42;5.05;;;2.90;;
36585;SDS011;22591;48.314;11.562;2022-10-30T13:27:54;11.80;;;3.60;;
36585;SDS011;22591;48.314;11.562;2022-10-30T13:30:34;10.60;;;3.10;;
36585;SDS011;22591;48.314;11.562;2022-10-30T13:46:57;9.35;;;3.72;;
36585;SDS011;22591;48.314;11.562;2022-10-30T13:49:32;6.63;;;3.17;;
36585;SDS011;22591;48.314;11.562;2022-10-30T13:52:21;10.93;;;4.18;;
36585;SDS011;22591;48.314;11.562;2022-10-30T14:05:49;10.10;;;3.45;;
36585;SDS011;22591;48.314;11.562;2022-10-30T14:11:28;13.40;;;3.83;;
36585;SDS011;22591;48.314;11.562;2022-10-30T14:14:03;15.43;;;4.00;;
36585;SDS011;22591;48.314;11.562;2022-10-30T14:17:33;17.33;;;4.22;;
36585;SDS011;22591;48.314;11.562;2022-10-30T14:22:29;10.68;;;4.10;;
36585;SDS011;22591;48.314;11.562;2022-10-30T14:24:55;9.32;;;3.80;;
36585;SDS011;22591;48.314;11.562;2022-10-30T14:27:25;12.48;;;4.70;;
36585;SDS011;22591;48.314;11.562;2022-10-30T14:29:52;11.75;;;3.83;;
36585;SDS011;22591;48.314;11.562;2022-10-30T14:37:09;7.95;;;3.67;;
36585;SDS011;22591;48.314;11.562;2022-10-30T14:39:40;8.75;;;3.60;;
36585;SDS011;22591;48.314;11.562;2022-10-30T14:47:55;8.52;;;3.65;;
36585;SDS011;22591;48.314;11.562;2022-10-30T14:53:18;13.75;;;4.32;;
36585;SDS011;22591;48.314;11.562;2022-10-30T14:58:28;10.90;;;4.50;;
36585;SDS011;22591;48.314;11.562;2022-10-30T15:03:46;8.65;;;4.15;;
36585;SDS011;22591;48.314;11.562;2022-10-30T15:06:24;12.60;;;4.65;;
36585;SDS011;22591;48.314;11.562;2022-10-30T15:14:56;14.57;;;4.10;;
36585;SDS011;22591;48.314;11.562;2022-10-30T15:17:28;8.82;;;4.30;;
36585;SDS011;22591;48.314;11.562;2022-10-30T15:19:58;10.60;;;4.97;;
36585;SDS011;22591;48.314;11.562;2022-10-30T15:22:26;11.90;;;4.38;;
36585;SDS011;22591;48.314;11.562;2022-10-30T15:24:54;12.20;;;4.25;;
36585;SDS011;22591;48.314;11.562;2022-10-30T15:27:20;11.10;;;4.47;;
36585;SDS011;22591;48.314;11.562;2022-10-30T15:29:49;9.27;;;4.40;;
36585;SDS011;22591;48.314;11.562;2022-10-30T15:32:18;9.45;;;4.22;;
36585;SDS011;22591;48.314;11.562;2022-10-30T15:34:52;8.40;;;4.10;;
36585;SDS011;22591;48.314;11.562;2022-10-30T15:37:26;12.00;;;4.55;;
36585;SDS011;22591;48.314;11.562;2022-10-30T15:42:54;12.18;;;4.43;;
36585;SDS011;22591;48.314;11.562;2022-10-30T15:45:22;6.45;;;4.57;;
36585;SDS011;22591;48.314;11.562;2022-10-30T15:48:38;6.93;;;4.68;;
36585;SDS011;22591;48.314;11.562;2022-10-30T15:50:41;9.23;;;4.53;;
36585;SDS011;22591;48.314;11.562;2022-10-30T15:53:19;10.13;;;4.13;;
36585;SDS011;22591;48.314;11.562;2022-10-30T15:55:48;7.80;;;3.92;;
36585;SDS011;22591;48.314;11.562;2022-10-30T15:58:16;9.60;;;3.97;;
36585;SDS011;22591;48.314;11.562;2022-10-30T16:00:58;9.70;;;4.03;;
36585;SDS011;22591;48.314;11.562;2022-10-30T16:03:25;6.88;;;3.92;;
36585;SDS011;22591;48.314;11.562;2022-10-30T16:06:04;12.32;;;4.38;;
36585;SDS011;22591;48.314;11.562;2022-10-30T16:08:43;6.35;;;4.57;;
36585;SDS011;22591;48.314;11.562;2022-10-30T16:11:10;12.80;;;4.47;;
36585;SDS011;22591;48.314;11.562;2022-10-30T16:13:37;11.00;;;5.80;;
36585;SDS011;22591;48.314;11.562;2022-10-30T16:16:02;10.63;;;5.15;;
36585;SDS011;22591;48.314;11.562;2022-10-30T16:18:32;9.65;;;4.60;;
36585;SDS011;22591;48.314;11.562;2022-10-30T16:21:06;12.38;;;5.13;;
36585;SDS011;22591;48.314;11.562;2022-10-30T16:23:40;11.88;;;5.68;;
36585;SDS011;22591;48.314;11.562;2022-10-30T16:26:24;13.27;;;4.50;;
36585;SDS011;22591;48.314;11.562;2022-10-30T16:28:55;9.05;;;5.40;;
36585;SDS011;22591;48.314;11.562;2022-10-30T16:31:21;13.55;;;5.80;;
36585;SDS011;22591;48.314;11.562;2022-10-30T16:33:48;7.63;;;4.68;;
36585;SDS011;22591;48.314;11.562;2022-10-30T16:36:15;10.05;;;4.82;;
36585;SDS011;22591;48.314;11.562;2022-10-30T16:38:42;12.60;;;5.10;;
36585;SDS011;22591;48.314;11.562;2022-10-30T16:41:10;14.20;;;5.80;;
36585;SDS011;22591;48.314;11.562;2022-10-30T16:43:38;17.85;;;5.57;;
36585;SDS011;22591;48.314;11.562;2022-10-30T16:48:59;19.15;;;6.30;;
36585;SDS011;22591;48.314;11.562;2022-10-30T16:51:27;13.77;;;5.88;;
36585;SDS011;22591;48.314;11.562;2022-10-30T16:53:54;10.70;;;5.63;;